Time;durP1;ratioP1;P1;durP2;ratioP2;P2;SDS_P1;SDS_P2;PMS_P1;PMS_P2;Temp;Humidity;BMP_temperature;BMP_pressure;BME280_temperature;BME280_humidity;BME280_pressure;Samples;Min_cycle;Max_cycle;Signal;HPM_P1;HPM_P2
2020/12/08 00:02:19;;;;;;;6.18;5.20;;;10.00;78.00;;;;;;5105505;28;20028;-48
2020/12/08 00:04:45;;;;;;;6.35;5.18;;;10.00;78.00;;;;;;5105484;28;20138;-48
2020/12/08 00:07:12;;;;;;;6.28;5.40;;;10.00;78.00;;;;;;5105510;28;20024;-46
2020/12/08 00:09:38;;;;;;;6.32;5.00;;;10.00;77.90;;;;;;5105441;28;20028;-46
2020/12/08 00:12:05;;;;;;;6.25;5.47;;;9.90;77.90;;;;;;5105417;28;20080;-46
2020/12/08 00:14:31;;;;;;;6.45;5.70;;;10.00;78.00;;;;;;5105380;28;20054;-47
2020/12/08 00:16:58;;;;;;;6.47;5.88;;;9.90;77.90;;;;;;5122835;28;20086;-47
2020/12/08 00:19:24;;;;;;;6.40;5.53;;;9.90;77.90;;;;;;5132239;27;20030;-46
2020/12/08 00:21:50;;;;;;;4.33;3.93;;;9.90;77.90;;;;;;5127976;27;20065;-46
2020/12/08 00:24:17;;;;;;;6.03;5.13;;;9.90;77.80;;;;;;5140963;27;20031;-46
2020/12/08 00:26:43;;;;;;;5.90;5.30;;;9.90;77.90;;;;;;5125694;28;20024;-47
2020/12/08 00:29:09;;;;;;;6.57;5.47;;;9.90;78.60;;;;;;5125159;28;20027;-47
2020/12/08 00:31:36;;;;;;;6.00;5.35;;;9.90;77.90;;;;;;5125549;28;20504;-46
2020/12/08 00:34:02;;;;;;;6.22;5.63;;;9.90;77.80;;;;;;5125218;28;20066;-46
2020/12/08 00:36:28;;;;;;;6.07;5.05;;;9.90;77.90;;;;;;5106381;27;20106;-46
2020/12/08 00:38:54;;;;;;;5.45;4.90;;;9.80;77.70;;;;;;5145927;27;20045;-46
2020/12/08 00:41:21;;;;;;;5.88;5.22;;;9.80;77.60;;;;;;5110851;28;20075;-47
2020/12/08 00:43:48;;;;;;;4.70;4.18;;;9.80;77.70;;;;;;5124625;28;20028;-47
2020/12/08 00:46:15;;;;;;;7.00;5.72;;;9.80;77.70;;;;;;5127984;27;20031;-47
2020/12/08 00:48:41;;;;;;;6.63;5.55;;;9.80;77.80;;;;;;5107279;27;20549;-46
2020/12/08 00:51:08;;;;;;;7.47;6.20;;;9.80;77.70;;;;;;5145641;27;20031;-46
2020/12/08 00:53:34;;;;;;;6.72;5.53;;;9.80;77.60;;;;;;5145477;27;20035;-47
2020/12/08 00:56:00;;;;;;;6.47;5.75;;;9.80;77.60;;;;;;5125654;27;20027;-46
2020/12/08 00:58:27;;;;;;;4.70;4.22;;;9.80;77.70;;;;;;5124853;28;20491;-46
2020/12/08 01:00:53;;;;;;;4.67;3.87;;;9.70;77.60;;;;;;5125021;28;20047;-47
2020/12/08 01:03:20;;;;;;;7.22;6.43;;;9.70;77.50;;;;;;5125048;28;20275;-46
2020/12/08 01:05:46;;;;;;;6.40;5.40;;;9.70;77.50;;;;;;5124445;28;20091;-46
2020/12/08 01:08:12;;;;;;;5.78;5.20;;;9.70;77.60;;;;;;5142602;27;20063;-46
2020/12/08 01:10:38;;;;;;;6.43;5.53;;;9.70;77.60;;;;;;5145423;27;20026;-46
2020/12/08 01:13:05;;;;;;;6.45;5.55;;;9.70;77.60;;;;;;5145163;27;20024;-46
2020/12/08 01:15:31;;;;;;;7.60;6.13;;;9.70;77.60;;;;;;5144842;27;20053;-46
2020/12/08 01:17:57;;;;;;;7.35;6.18;;;9.70;77.50;;;;;;5145108;27;20016;-47
2020/12/08 01:20:23;;;;;;;7.25;5.60;;;9.70;77.50;;;;;;5130246;27;20055;-46
2020/12/08 01:22:51;;;;;;;7.20;5.63;;;9.70;77.50;;;;;;5124288;28;20032;-46
2020/12/08 01:25:18;;;;;;;6.15;5.40;;;9.70;77.50;;;;;;5124061;28;20028;-47
2020/12/08 01:27:44;;;;;;;6.20;5.60;;;9.60;77.50;;;;;;5105911;28;20070;-47
2020/12/08 01:30:10;;;;;;;6.93;5.70;;;9.60;77.50;;;;;;5124437;28;20040;-47
2020/12/08 01:32:36;;;;;;;6.85;6.03;;;9.60;77.50;;;;;;5124363;28;20035;-46
2020/12/08 01:35:03;;;;;;;7.10;5.75;;;9.60;77.40;;;;;;5124084;28;20032;-46
2020/12/08 01:37:29;;;;;;;7.97;5.90;;;9.60;77.50;;;;;;5132289;27;20025;-46
2020/12/08 01:39:55;;;;;;;6.80;5.88;;;9.60;77.40;;;;;;5144623;27;20027;-46
2020/12/08 01:42:21;;;;;;;7.47;5.97;;;9.60;77.50;;;;;;5134365;27;20032;-46
2020/12/08 01:44:48;;;;;;;7.38;6.18;;;9.50;77.40;;;;;;5123709;28;20066;-46
2020/12/08 01:47:15;;;;;;;7.63;6.50;;;9.50;77.40;;;;;;5129879;27;20645;-47
2020/12/08 01:49:45;;;;;;;6.18;5.47;;;9.50;77.50;;;;;;5134976;27;20097;-48
2020/12/08 01:52:15;;;;;;;7.10;5.70;;;9.50;77.40;;;;;;5105918;28;20054;-46
2020/12/08 01:54:50;;;;;;;6.28;5.68;;;9.50;77.40;;;;;;5132452;27;20030;-47
2020/12/08 01:57:17;;;;;;;7.68;5.97;;;9.50;77.40;;;;;;5143878;27;20027;-46
2020/12/08 01:59:43;;;;;;;7.05;5.88;;;9.50;77.30;;;;;;5144327;27;20049;-47
2020/12/08 02:02:09;;;;;;;7.15;6.13;;;9.40;77.30;;;;;;5144289;27;20039;-46
2020/12/08 02:04:36;;;;;;;7.00;5.55;;;9.40;77.30;;;;;;5125757;27;20023;-47
2020/12/08 02:07:02;;;;;;;7.57;6.25;;;9.40;77.30;;;;;;5137917;27;20514;-47
2020/12/08 02:09:28;;;;;;;6.87;5.90;;;9.40;77.30;;;;;;5144203;27;20468;-46
2020/12/08 02:11:55;;;;;;;7.57;5.63;;;9.40;77.30;;;;;;5144038;27;20031;-47
2020/12/08 02:14:21;;;;;;;8.85;7.00;;;9.40;77.30;;;;;;5144208;27;20034;-46
2020/12/08 02:16:47;;;;;;;7.55;6.22;;;9.40;77.30;;;;;;5143652;27;20051;-46
2020/12/08 02:19:13;;;;;;;7.32;6.05;;;9.40;77.30;;;;;;5139239;27;20109;-47
2020/12/08 02:21:39;;;;;;;9.60;6.30;;;9.40;77.30;;;;;;5123193;28;20063;-46
2020/12/08 02:24:06;;;;;;;7.80;6.20;;;9.30;77.30;;;;;;5123408;28;20116;-47
2020/12/08 02:26:32;;;;;;;7.60;6.25;;;9.30;77.30;;;;;;5104776;28;20028;-46
2020/12/08 02:28:59;;;;;;;7.63;6.28;;;9.30;77.30;;;;;;5123258;28;20028;-47
2020/12/08 02:31:25;;;;;;;7.00;6.05;;;9.30;77.30;;;;;;5123287;28;20027;-47
2020/12/08 02:33:51;;;;;;;7.32;6.45;;;9.30;77.30;;;;;;5123280;28;20114;-46
2020/12/08 02:36:17;;;;;;;7.97;6.10;;;9.30;77.30;;;;;;5117422;28;20035;-46
2020/12/08 02:38:44;;;;;;;7.50;6.80;;;9.30;77.30;;;;;;5118500;28;20030;-48
2020/12/08 02:41:10;;;;;;;7.55;6.47;;;9.20;77.40;;;;;;5102776;28;20389;-47
2020/12/08 02:43:36;;;;;;;7.60;6.30;;;9.20;77.30;;;;;;5102605;28;20028;-47
2020/12/08 02:46:02;;;;;;;7.30;6.50;;;9.20;77.30;;;;;;5119006;28;20027;-48
2020/12/08 02:48:28;;;;;;;7.18;6.35;;;9.20;77.30;;;;;;5125716;28;20037;-47
2020/12/08 02:50:55;;;;;;;7.57;6.68;;;9.20;77.30;;;;;;5142279;28;20020;-46
2020/12/08 02:53:21;;;;;;;7.07;6.38;;;9.20;77.40;;;;;;5143601;28;20027;-48
2020/12/08 02:55:48;;;;;;;7.50;6.47;;;9.20;77.40;;;;;;5125597;28;20080;-46
2020/12/08 02:58:14;;;;;;;6.97;5.20;;;9.10;77.30;;;;;;5104489;28;20024;-47
2020/12/08 03:00:40;;;;;;;7.03;6.17;;;9.10;77.30;;;;;;5124864;28;20598;-46
2020/12/08 03:03:07;;;;;;;7.75;6.78;;;9.10;77.30;;;;;;5108817;28;20435;-46
2020/12/08 03:05:33;;;;;;;7.70;6.55;;;9.10;77.30;;;;;;5108751;28;20034;-47
2020/12/08 03:07:59;;;;;;;7.47;6.68;;;9.10;77.30;;;;;;5142876;27;20106;-46
2020/12/08 03:10:25;;;;;;;7.25;6.25;;;9.00;77.30;;;;;;5128954;27;20103;-47
2020/12/08 03:12:52;;;;;;;7.03;6.32;;;9.00;77.30;;;;;;5147519;27;20023;-46
2020/12/08 03:15:18;;;;;;;6.70;4.87;;;9.00;77.30;;;;;;5147221;27;20039;-47
2020/12/08 03:17:44;;;;;;;7.60;6.68;;;9.00;77.30;;;;;;5147117;27;20267;-46
2020/12/08 03:20:10;;;;;;;7.13;6.38;;;9.00;77.30;;;;;;5134293;27;20025;-48
2020/12/08 03:22:37;;;;;;;6.75;6.05;;;9.00;77.30;;;;;;5126642;28;20027;-47
2020/12/08 03:25:04;;;;;;;7.63;6.53;;;9.00;77.30;;;;;;5126642;28;20024;-47
2020/12/08 03:27:30;;;;;;;7.28;6.47;;;9.00;77.40;;;;;;5126331;28;20024;-46
2020/12/08 03:29:56;;;;;;;8.23;6.53;;;9.00;77.30;;;;;;5126584;28;20096;-47
2020/12/08 03:32:22;;;;;;;7.60;6.80;;;9.00;77.40;;;;;;5126564;28;20512;-46
2020/12/08 03:34:48;;;;;;;8.13;6.80;;;8.90;77.30;;;;;;5126642;28;20115;-47
2020/12/08 03:37:15;;;;;;;7.95;7.00;;;8.90;77.30;;;;;;5129375;27;20054;-47
2020/12/08 03:39:41;;;;;;;6.88;5.05;;;8.90;77.30;;;;;;5126285;28;20058;-47
2020/12/08 03:42:07;;;;;;;7.57;6.45;;;8.90;77.30;;;;;;5134638;27;20060;-46
2020/12/08 03:44:33;;;;;;;7.90;6.50;;;8.90;77.30;;;;;;5126198;28;20047;-46
2020/12/08 03:47:00;;;;;;;8.52;6.93;;;8.90;77.30;;;;;;5126066;28;20027;-47
2020/12/08 03:49:26;;;;;;;7.20;6.43;;;8.90;77.30;;;;;;5132796;27;20510;-47
2020/12/08 03:51:53;;;;;;;7.30;6.45;;;8.90;77.40;;;;;;5146663;27;20040;-46
2020/12/08 03:54:20;;;;;;;7.40;6.38;;;8.80;77.30;;;;;;5141240;27;20035;-46
2020/12/08 03:56:46;;;;;;;7.30;6.57;;;8.80;77.30;;;;;;5125982;28;20031;-48
2020/12/08 03:59:22;;;;;;;6.93;6.20;;;8.80;77.30;;;;;;5125900;28;20032;-48
2020/12/08 04:01:49;;;;;;;7.57;6.50;;;8.80;77.30;;;;;;5108638;28;20050;-46
2020/12/08 04:04:18;;;;;;;8.60;6.47;;;8.80;77.30;;;;;;5126040;28;20028;-47
2020/12/08 04:06:44;;;;;;;7.45;6.57;;;8.80;78.00;;;;;;5119842;28;20047;-46
2020/12/08 04:09:10;;;;;;;7.30;6.18;;;8.80;77.40;;;;;;5105387;28;20062;-46
2020/12/08 04:11:37;;;;;;;7.90;7.03;;;8.80;77.40;;;;;;5104422;28;20020;-46
2020/12/08 04:14:03;;;;;;;7.10;5.78;;;8.70;77.30;;;;;;5106689;27;20024;-45
2020/12/08 04:16:32;;;;;;;8.25;6.75;;;8.70;77.30;;;;;;5127640;27;20051;-46
2020/12/08 04:19:01;;;;;;;7.88;6.70;;;8.70;77.40;;;;;;5109803;27;20031;-47
2020/12/08 04:21:28;;;;;;;10.15;6.63;;;8.70;77.40;;;;;;5146072;27;20035;-46
2020/12/08 04:23:59;;;;;;;7.70;6.65;;;8.70;77.40;;;;;;5125829;27;20100;-46
2020/12/08 04:26:29;;;;;;;8.10;6.95;;;8.70;77.40;;;;;;5125343;28;20063;-46
2020/12/08 04:28:55;;;;;;;8.07;6.35;;;8.70;77.40;;;;;;5106621;28;20047;-47
2020/12/08 04:31:21;;;;;;;6.93;6.20;;;8.60;77.40;;;;;;5125496;28;20042;-46
2020/12/08 04:33:47;;;;;;;7.50;6.22;;;8.60;77.30;;;;;;5125434;28;20035;-46
2020/12/08 04:36:18;;;;;;;8.63;6.75;;;8.60;77.40;;;;;;5120183;28;20057;-46
2020/12/08 04:38:44;;;;;;;7.68;6.28;;;8.60;77.40;;;;;;5104414;28;20016;-47
2020/12/08 04:41:11;;;;;;;8.00;6.70;;;8.60;77.40;;;;;;5133034;27;20057;-46
2020/12/08 04:43:40;;;;;;;7.10;6.30;;;8.60;77.40;;;;;;5145642;27;20023;-47
2020/12/08 04:46:07;;;;;;;7.43;6.53;;;8.60;77.40;;;;;;5145665;27;20029;-47
2020/12/08 04:48:37;;;;;;;7.40;6.35;;;8.50;77.30;;;;;;5145366;27;20045;-47
2020/12/08 04:51:04;;;;;;;7.25;6.25;;;8.50;77.40;;;;;;5125022;27;20480;-46
2020/12/08 04:53:30;;;;;;;7.28;6.28;;;8.50;77.50;;;;;;5124669;27;20027;-47
2020/12/08 04:55:56;;;;;;;7.72;6.60;;;8.50;77.40;;;;;;5125399;27;20027;-45
2020/12/08 04:58:24;;;;;;;7.90;6.73;;;8.50;77.50;;;;;;5106016;28;20041;-47
2020/12/08 05:00:50;;;;;;;8.27;6.72;;;8.50;77.50;;;;;;5106394;28;20069;-47
2020/12/08 05:03:27;;;;;;;6.70;6.00;;;8.50;77.50;;;;;;5106458;28;20035;-46
2020/12/08 05:05:53;;;;;;;8.20;6.60;;;8.40;77.40;;;;;;5106068;28;20486;-46
2020/12/08 05:08:20;;;;;;;5.47;4.72;;;8.50;77.50;;;;;;5086701;28;20035;-46
2020/12/08 05:10:48;;;;;;;7.77;6.80;;;8.40;77.40;;;;;;5104013;28;20523;-46
2020/12/08 05:13:27;;;;;;;8.15;6.80;;;8.40;77.50;;;;;;5103977;28;20537;-47
2020/12/08 05:16:06;;;;;;;6.85;6.15;;;8.40;77.50;;;;;;5085890;28;20055;-46
2020/12/08 05:18:34;;;;;;;7.68;6.40;;;8.40;77.50;;;;;;5103780;28;20105;-47
2020/12/08 05:21:12;;;;;;;7.85;7.03;;;8.40;77.50;;;;;;5143524;27;20047;-46
2020/12/08 05:23:42;;;;;;;7.65;6.25;;;8.30;77.40;;;;;;5144694;27;20042;-47
2020/12/08 05:26:09;;;;;;;6.25;5.40;;;8.30;77.40;;;;;;5103889;28;20103;-46
2020/12/08 05:28:36;;;;;;;4.93;4.43;;;8.30;77.50;;;;;;5103417;28;20030;-46
2020/12/08 05:31:02;;;;;;;7.03;6.30;;;8.30;77.40;;;;;;5085472;28;20035;-46
2020/12/08 05:33:28;;;;;;;6.68;5.97;;;8.30;77.40;;;;;;5103792;28;20105;-46
2020/12/08 05:35:56;;;;;;;7.28;6.30;;;8.30;77.50;;;;;;5105702;28;20020;-47
2020/12/08 05:38:24;;;;;;;7.90;6.68;;;8.30;77.50;;;;;;5104107;28;20026;-48
2020/12/08 05:40:51;;;;;;;6.75;6.05;;;8.20;77.40;;;;;;5085561;28;20040;-47
2020/12/08 05:43:19;;;;;;;7.75;6.65;;;8.20;77.60;;;;;;5093259;28;20016;-46
2020/12/08 05:45:48;;;;;;;7.78;6.35;;;8.20;77.60;;;;;;5085514;28;20040;-47
2020/12/08 05:48:18;;;;;;;7.22;6.05;;;8.20;77.60;;;;;;5105127;28;20137;-47
2020/12/08 05:50:44;;;;;;;7.40;6.10;;;8.20;77.60;;;;;;5123042;27;20023;-46
2020/12/08 05:53:10;;;;;;;6.93;6.22;;;8.20;77.50;;;;;;5123862;28;20618;-46
2020/12/08 05:55:37;;;;;;;7.15;6.30;;;8.20;77.50;;;;;;5121187;27;20038;-46
2020/12/08 05:58:05;;;;;;;7.95;6.18;;;8.20;77.60;;;;;;5143517;27;20027;-46
2020/12/08 06:00:31;;;;;;;6.72;6.03;;;8.20;77.60;;;;;;5143637;27;20026;-47
2020/12/08 06:03:14;;;;;;;7.97;6.30;;;8.10;77.50;;;;;;5127823;27;20047;-46
2020/12/08 06:05:44;;;;;;;8.40;6.32;;;8.10;77.50;;;;;;5123107;28;20030;-46
2020/12/08 06:08:17;;;;;;;8.48;6.18;;;8.10;77.50;;;;;;5124693;27;20138;-53
2020/12/08 06:10:47;;;;;;;8.35;6.53;;;8.10;77.50;;;;;;5127213;27;20019;-46
2020/12/08 06:13:26;;;;;;;8.18;6.75;;;8.10;77.50;;;;;;5125578;27;20026;-46
2020/12/08 06:15:53;;;;;;;6.65;5.95;;;8.10;77.50;;;;;;5122653;27;20062;-46
2020/12/08 06:18:33;;;;;;;7.53;6.00;;;8.10;77.50;;;;;;5131318;27;20065;-46
2020/12/08 06:20:59;;;;;;;6.70;5.75;;;8.00;77.50;;;;;;5123215;27;20042;-46
2020/12/08 06:23:25;;;;;;;7.25;6.45;;;8.00;77.50;;;;;;5128254;27;21345;-46
2020/12/08 06:25:59;;;;;;;7.72;6.80;;;8.00;77.70;;;;;;5116945;27;20063;-46
2020/12/08 06:28:25;;;;;;;7.38;6.57;;;8.00;77.50;;;;;;5121120;27;20024;-46
2020/12/08 06:31:05;;;;;;;7.50;6.68;;;8.00;77.60;;;;;;5130750;28;20045;-46
2020/12/08 06:33:32;;;;;;;6.97;6.05;;;8.00;77.50;;;;;;5123380;28;20126;-46
2020/12/08 06:35:59;;;;;;;7.80;6.70;;;7.90;77.50;;;;;;5117092;28;20073;-47
2020/12/08 06:38:26;;;;;;;7.80;6.65;;;8.00;77.60;;;;;;5106320;28;20039;-47
2020/12/08 06:40:52;;;;;;;7.40;6.30;;;7.90;77.50;;;;;;5117065;28;20027;-47
2020/12/08 06:43:19;;;;;;;6.45;5.57;;;7.90;77.60;;;;;;5121865;28;20023;-47
2020/12/08 06:45:45;;;;;;;7.55;6.45;;;7.90;77.60;;;;;;5128277;28;20041;-46
2020/12/08 06:48:21;;;;;;;7.15;5.90;;;7.90;77.60;;;;;;5130729;28;20027;-46
2020/12/08 06:50:48;;;;;;;7.10;5.93;;;7.90;77.60;;;;;;5127201;28;20035;-46
2020/12/08 06:53:14;;;;;;;8.43;6.93;;;7.90;77.60;;;;;;5126262;28;20023;-47
2020/12/08 06:55:45;;;;;;;7.38;6.20;;;7.90;77.60;;;;;;5103605;28;20054;-47
2020/12/08 06:58:11;;;;;;;7.85;6.60;;;7.90;77.60;;;;;;5130695;28;20090;-47
2020/12/08 07:00:37;;;;;;;7.40;5.95;;;7.80;77.60;;;;;;5118415;28;20042;-46
2020/12/08 07:03:03;;;;;;;7.82;6.47;;;7.80;77.60;;;;;;5121576;28;20031;-46
2020/12/08 07:05:30;;;;;;;6.85;6.07;;;7.80;77.60;;;;;;5122972;28;20078;-46
2020/12/08 07:08:07;;;;;;;7.18;6.25;;;7.80;77.60;;;;;;5101743;28;20054;-46
2020/12/08 07:10:37;;;;;;;7.38;6.55;;;7.80;77.60;;;;;;5083828;28;20020;-46
2020/12/08 07:13:14;;;;;;;7.88;6.80;;;7.80;77.70;;;;;;5102444;28;20024;-46
2020/12/08 07:15:40;;;;;;;7.15;6.30;;;7.80;77.70;;;;;;5095499;28;20496;-46
2020/12/08 07:18:08;;;;;;;4.80;4.32;;;7.80;77.70;;;;;;5082104;28;20068;-47
2020/12/08 07:20:33;;;;;;;;;;;7.80;78.40;;;;;;5098327;28;20366;-48
2020/12/08 07:23:06;;;;;;;6.68;5.85;;;7.70;77.60;;;;;;5083973;28;20403;-46
2020/12/08 07:25:33;;;;;;;7.00;6.28;;;7.70;77.60;;;;;;5084051;28;20032;-46
2020/12/08 07:27:59;;;;;;;6.63;6.00;;;7.70;77.60;;;;;;5102262;28;20028;-46
2020/12/08 07:30:26;;;;;;;7.18;6.25;;;7.70;77.70;;;;;;5101863;28;20605;-47
2020/12/08 07:32:53;;;;;;;8.43;6.82;;;7.70;77.70;;;;;;5102194;28;20070;-46
2020/12/08 07:35:26;;;;;;;7.18;6.22;;;7.70;77.70;;;;;;5102189;28;20043;-47
2020/12/08 07:37:54;;;;;;;6.60;5.85;;;7.70;77.70;;;;;;5102073;28;20024;-49
2020/12/08 07:40:20;;;;;;;7.18;6.05;;;7.70;77.70;;;;;;5101552;28;20040;-48
2020/12/08 07:42:51;;;;;;;6.30;5.70;;;7.70;77.70;;;;;;5100615;28;20024;-46
2020/12/08 07:45:18;;;;;;;6.68;5.93;;;7.70;77.70;;;;;;5101736;28;20024;-48
2020/12/08 07:47:44;;;;;;;;;;;7.60;77.70;;;;;;5086126;28;20027;-48
2020/12/08 07:50:19;;;;;;;6.38;5.35;;;7.60;77.70;;;;;;5087152;28;19919;-49
2020/12/08 07:52:54;;;;;;;7.38;6.47;;;7.60;77.70;;;;;;5105394;28;20028;-48
2020/12/08 07:55:21;;;;;;;8.70;6.63;;;7.60;77.70;;;;;;5105389;28;20035;-48
2020/12/08 07:57:47;;;;;;;7.10;6.13;;;7.60;77.80;;;;;;5105253;28;20049;-47
2020/12/08 08:00:13;;;;;;;7.25;5.85;;;7.60;77.80;;;;;;5104874;28;20024;-47
2020/12/08 08:02:39;;;;;;;7.22;6.07;;;7.50;78.50;;;;;;5105170;28;20081;-48
2020/12/08 08:05:05;;;;;;;7.13;6.07;;;7.50;77.80;;;;;;5105349;28;20028;-48
2020/12/08 08:07:31;;;;;;;7.05;5.88;;;7.50;77.80;;;;;;5105240;28;20028;-49
2020/12/08 08:09:57;;;;;;;6.57;5.82;;;7.50;77.80;;;;;;5105069;28;20071;-49
2020/12/08 08:12:25;;;;;;;7.30;6.50;;;7.50;77.80;;;;;;5104849;28;20066;-48
2020/12/08 08:14:51;;;;;;;6.78;5.63;;;7.50;77.80;;;;;;5104883;28;20028;-47
2020/12/08 08:17:17;;;;;;;6.22;5.53;;;7.50;77.90;;;;;;5104414;28;20105;-49
2020/12/08 08:19:43;;;;;;;7.07;6.20;;;7.50;77.90;;;;;;5104974;28;20024;-48
2020/12/08 08:22:09;;;;;;;7.03;6.07;;;7.50;77.90;;;;;;5104669;28;20502;-48
2020/12/08 08:24:35;;;;;;;6.93;6.15;;;7.40;77.80;;;;;;5104823;28;20080;-48
2020/12/08 08:27:01;;;;;;;7.32;6.53;;;7.40;77.80;;;;;;5104736;28;20027;-49
2020/12/08 08:29:27;;;;;;;6.60;5.88;;;7.40;77.90;;;;;;5104542;28;20032;-47
2020/12/08 08:31:54;;;;;;;6.57;5.88;;;7.40;77.90;;;;;;5104255;28;20587;-48
2020/12/08 08:34:20;;;;;;;7.10;6.10;;;7.40;77.80;;;;;;5104870;28;20028;-48
2020/12/08 08:36:53;;;;;;;7.10;6.13;;;7.40;77.80;;;;;;5104329;28;20033;-47
2020/12/08 08:39:19;;;;;;;7.28;6.13;;;7.40;77.90;;;;;;5086282;28;20055;-47
2020/12/08 08:41:45;;;;;;;6.95;5.97;;;7.40;77.90;;;;;;5104229;28;20067;-49
2020/12/08 08:44:11;;;;;;;6.43;5.72;;;7.40;77.90;;;;;;5104357;28;20082;-46
2020/12/08 08:46:41;;;;;;;6.70;5.95;;;7.30;77.90;;;;;;5104413;28;20614;-47
2020/12/08 08:49:08;;;;;;;7.18;6.13;;;7.30;77.90;;;;;;5104295;28;20035;-46
2020/12/08 08:51:37;;;;;;;7.70;5.88;;;7.30;77.90;;;;;;5103457;28;20016;-46
2020/12/08 08:54:03;;;;;;;6.70;5.60;;;7.30;77.90;;;;;;5103533;28;20032;-47
2020/12/08 08:56:29;;;;;;;6.95;6.15;;;7.30;78.00;;;;;;5104045;28;20043;-47
2020/12/08 08:58:55;;;;;;;7.20;5.97;;;7.30;77.90;;;;;;5103685;28;20105;-48
2020/12/08 09:01:21;;;;;;;6.50;5.38;;;7.30;77.90;;;;;;5103834;28;20036;-49
2020/12/08 09:03:48;;;;;;;7.38;6.13;;;7.30;77.90;;;;;;5104209;28;20028;-48
2020/12/08 09:06:14;;;;;;;6.25;5.40;;;7.20;77.90;;;;;;5099003;28;20025;-49
2020/12/08 09:08:40;;;;;;;6.45;5.40;;;7.30;78.00;;;;;;5083601;28;20116;-49
2020/12/08 09:11:07;;;;;;;6.00;5.18;;;7.20;78.00;;;;;;5083327;28;20036;-48
2020/12/08 09:13:34;;;;;;;6.93;5.85;;;7.20;77.90;;;;;;5083397;28;20054;-49
2020/12/08 09:16:00;;;;;;;5.93;5.28;;;7.20;77.90;;;;;;5083362;28;20055;-47
2020/12/08 09:18:26;;;;;;;6.80;5.80;;;7.20;78.00;;;;;;5083260;28;20041;-48
2020/12/08 09:20:53;;;;;;;6.27;5.47;;;7.20;78.00;;;;;;5102126;28;20059;-48
2020/12/08 09:23:22;;;;;;;6.82;5.72;;;7.20;78.00;;;;;;5103518;28;20028;-48
2020/12/08 09:25:49;;;;;;;6.15;5.55;;;7.20;78.00;;;;;;5103452;28;20043;-48
2020/12/08 09:28:15;;;;;;;5.90;5.20;;;7.10;77.90;;;;;;5103691;28;20020;-50
2020/12/08 09:30:41;;;;;;;4.27;3.87;;;7.10;77.90;;;;;;5103237;28;20034;-48
2020/12/08 09:33:08;;;;;;;7.55;6.15;;;7.10;78.00;;;;;;5103121;28;20633;-48
2020/12/08 09:35:34;;;;;;;5.70;5.10;;;7.10;78.00;;;;;;5103308;28;20026;-47
2020/12/08 09:38:00;;;;;;;6.75;5.55;;;7.10;78.00;;;;;;5103276;28;20027;-48
2020/12/08 09:40:26;;;;;;;5.95;5.35;;;7.10;78.00;;;;;;5101762;28;20045;-48
2020/12/08 09:42:52;;;;;;;6.85;5.60;;;7.10;78.00;;;;;;5103148;28;20031;-47
2020/12/08 09:45:18;;;;;;;7.30;5.65;;;7.10;78.00;;;;;;5103112;28;20055;-48
2020/12/08 09:47:44;;;;;;;7.50;5.53;;;7.10;78.00;;;;;;5102915;28;20044;-48
2020/12/08 09:50:11;;;;;;;6.32;5.35;;;7.10;78.00;;;;;;5103120;28;20089;-49
2020/12/08 09:52:37;;;;;;;6.05;5.38;;;7.10;78.10;;;;;;5103250;28;20767;-47
2020/12/08 09:55:04;;;;;;;6.03;5.18;;;7.00;78.00;;;;;;5103078;28;20024;-49
2020/12/08 09:57:30;;;;;;;6.88;5.72;;;7.00;78.00;;;;;;5102842;28;20119;-48
2020/12/08 09:59:56;;;;;;;5.93;5.30;;;7.00;78.00;;;;;;5102786;28;20028;-48
2020/12/08 10:02:23;;;;;;;6.72;5.50;;;7.00;78.00;;;;;;5102773;28;20070;-48
2020/12/08 10:04:53;;;;;;;6.10;5.50;;;7.00;78.00;;;;;;5084970;28;20031;-48
2020/12/08 10:07:21;;;;;;;6.30;5.32;;;7.00;78.00;;;;;;5088811;28;20066;-47
2020/12/08 10:09:48;;;;;;;6.00;5.38;;;7.00;78.10;;;;;;5087118;28;20027;-48
2020/12/08 10:12:14;;;;;;;6.00;5.03;;;7.00;78.00;;;;;;5102822;28;20057;-47
2020/12/08 10:14:41;;;;;;;6.18;5.57;;;7.00;78.00;;;;;;5102699;28;20027;-47
2020/12/08 10:17:07;;;;;;;6.43;5.47;;;6.90;78.00;;;;;;5121543;28;20058;-47
2020/12/08 10:19:33;;;;;;;4.88;3.88;;;6.90;78.00;;;;;;5112041;27;20020;-47
2020/12/08 10:22:00;;;;;;;5.90;5.30;;;6.90;78.10;;;;;;5143450;27;20031;-47
2020/12/08 10:24:26;;;;;;;5.97;5.38;;;6.90;78.80;;;;;;5137252;27;20095;-48
2020/12/08 10:26:52;;;;;;;5.38;4.70;;;6.90;78.00;;;;;;5123102;28;20066;-48
2020/12/08 10:29:19;;;;;;;5.40;4.75;;;6.90;78.10;;;;;;5122700;28;20071;-47
2020/12/08 10:31:46;;;;;;;5.75;5.15;;;6.90;78.10;;;;;;5106874;28;20134;-48
2020/12/08 10:34:12;;;;;;;4.90;4.10;;;6.90;78.20;;;;;;5143504;28;20030;-47
2020/12/08 10:36:38;;;;;;;6.20;4.88;;;6.90;78.80;;;;;;5134926;28;20507;-47
2020/12/08 10:39:04;;;;;;;6.07;5.40;;;6.80;78.10;;;;;;5141318;28;20027;-49
2020/12/08 10:41:31;;;;;;;6.17;5.20;;;6.80;78.10;;;;;;5143440;28;20024;-47
2020/12/08 10:43:57;;;;;;;6.57;5.67;;;6.80;78.10;;;;;;5143390;28;20029;-47
2020/12/08 10:46:23;;;;;;;6.45;5.00;;;6.80;78.10;;;;;;5128785;28;20483;-47
2020/12/08 10:48:52;;;;;;;6.05;5.22;;;6.80;78.00;;;;;;5123716;28;20115;-48
2020/12/08 10:51:20;;;;;;;5.63;5.05;;;6.80;78.10;;;;;;5143219;28;20031;-48
2020/12/08 10:53:46;;;;;;;6.15;5.15;;;6.80;78.10;;;;;;5142599;28;20028;-47
2020/12/08 10:56:22;;;;;;;5.82;5.22;;;6.80;78.20;;;;;;5122565;28;20019;-48
2020/12/08 10:58:49;;;;;;;6.18;4.90;;;6.80;78.10;;;;;;5104275;28;20066;-47
2020/12/08 11:01:22;;;;;;;5.40;4.65;;;6.80;78.10;;;;;;5122605;28;20042;-47
2020/12/08 11:03:48;;;;;;;6.18;5.25;;;6.80;78.20;;;;;;5122547;28;20111;-48
2020/12/08 11:06:31;;;;;;;5.63;4.97;;;6.70;78.10;;;;;;5117444;28;20075;-48
2020/12/08 11:08:57;;;;;;;5.22;4.68;;;6.70;78.10;;;;;;5102044;28;20261;-47
2020/12/08 11:11:24;;;;;;;5.53;4.60;;;6.70;78.10;;;;;;5102327;28;20138;-48
2020/12/08 11:13:51;;;;;;;5.68;5.07;;;6.70;78.10;;;;;;5102034;28;20020;-48
2020/12/08 11:16:18;;;;;;;5.72;4.88;;;6.70;78.10;;;;;;5090243;28;20052;-48
2020/12/08 11:18:44;;;;;;;6.25;5.45;;;6.70;78.10;;;;;;5082150;28;20086;-48
2020/12/08 11:21:10;;;;;;;5.53;4.57;;;6.70;78.20;;;;;;5103129;28;20024;-48
2020/12/08 11:23:37;;;;;;;5.07;4.40;;;6.70;78.20;;;;;;5106035;28;20910;-48
2020/12/08 11:26:03;;;;;;;5.87;4.57;;;6.70;78.10;;;;;;5105921;28;20035;-48
2020/12/08 11:28:29;;;;;;;6.13;5.13;;;6.60;78.10;;;;;;5105851;28;20039;-48
2020/12/08 11:30:55;;;;;;;5.75;4.82;;;6.60;78.10;;;;;;5105481;28;20053;-47
2020/12/08 11:33:21;;;;;;;6.33;5.00;;;6.60;78.20;;;;;;5105084;28;20397;-48
2020/12/08 11:35:49;;;;;;;5.72;4.57;;;6.60;78.20;;;;;;5105482;28;20058;-48
2020/12/08 11:38:15;;;;;;;4.75;4.28;;;6.60;78.20;;;;;;5105714;28;20455;-48
2020/12/08 11:40:42;;;;;;;5.35;4.63;;;6.60;78.20;;;;;;5103319;28;20070;-48
2020/12/08 11:43:08;;;;;;;5.07;4.53;;;6.60;78.20;;;;;;5105423;28;20057;-48
2020/12/08 11:45:34;;;;;;;5.40;4.60;;;6.60;78.30;;;;;;5105184;28;20024;-48
2020/12/08 11:48:00;;;;;;;5.55;4.70;;;6.60;78.30;;;;;;5105466;28;20620;-48
2020/12/08 11:50:26;;;;;;;5.40;4.78;;;6.60;78.30;;;;;;5105492;28;20032;-48
2020/12/08 11:52:52;;;;;;;5.50;4.90;;;6.50;78.30;;;;;;5105549;28;20036;-49
2020/12/08 11:55:18;;;;;;;6.10;4.88;;;6.50;78.30;;;;;;5104960;28;20083;-48
2020/12/08 11:57:45;;;;;;;5.38;4.35;;;6.50;78.30;;;;;;5105244;28;20020;-48
2020/12/08 12:00:11;;;;;;;4.88;4.35;;;6.50;78.30;;;;;;5104842;28;20054;-47
2020/12/08 12:02:37;;;;;;;4.93;4.35;;;6.50;78.30;;;;;;5102302;28;20040;-50
2020/12/08 12:05:03;;;;;;;5.10;4.60;;;6.50;78.30;;;;;;5096649;28;20021;-48
2020/12/08 12:07:29;;;;;;;5.05;4.50;;;6.50;78.30;;;;;;5096391;28;20036;-48
2020/12/08 12:09:56;;;;;;;5.53;4.53;;;6.50;78.30;;;;;;5097812;28;20024;-48
2020/12/08 12:12:22;;;;;;;4.75;4.28;;;6.50;78.40;;;;;;5097454;28;20847;-48
2020/12/08 12:14:48;;;;;;;4.80;4.30;;;6.40;78.30;;;;;;5096533;28;20028;-48
2020/12/08 12:17:14;;;;;;;5.13;4.60;;;6.40;78.30;;;;;;5122718;27;20178;-49
2020/12/08 12:19:40;;;;;;;5.30;4.43;;;6.40;78.30;;;;;;5121126;27;20024;-49
2020/12/08 12:22:06;;;;;;;4.93;4.28;;;6.40;78.30;;;;;;5122742;27;20167;-48
2020/12/08 12:24:32;;;;;;;5.25;4.72;;;6.40;78.40;;;;;;5129693;27;20054;-49
2020/12/08 12:26:59;;;;;;;5.97;4.72;;;6.40;78.30;;;;;;5131565;27;20027;-48
2020/12/08 12:29:25;;;;;;;5.53;4.13;;;6.40;78.40;;;;;;5124488;27;20020;-48
2020/12/08 12:31:51;;;;;;;5.05;4.18;;;6.40;78.30;;;;;;5103391;27;20030;-48
2020/12/08 12:34:20;;;;;;;5.10;4.47;;;6.40;78.30;;;;;;5124341;27;20024;-48
2020/12/08 12:36:47;;;;;;;5.22;4.60;;;6.40;78.30;;;;;;5132017;27;20023;-48
2020/12/08 12:39:14;;;;;;;4.70;4.20;;;6.30;78.40;;;;;;5106706;28;20028;-47
2020/12/08 12:41:40;;;;;;;4.53;4.03;;;6.30;78.30;;;;;;5123563;28;20044;-49
2020/12/08 12:44:06;;;;;;;5.15;4.55;;;6.30;78.20;;;;;;5106504;28;20060;-48
2020/12/08 12:46:32;;;;;;;4.78;4.28;;;6.30;78.30;;;;;;5124464;28;20043;-48
2020/12/08 12:48:59;;;;;;;5.18;4.28;;;6.30;78.30;;;;;;5127532;27;20045;-48
2020/12/08 12:51:25;;;;;;;4.63;4.20;;;6.30;78.30;;;;;;5145374;27;20054;-47
2020/12/08 12:53:52;;;;;;;5.30;4.20;;;6.30;78.30;;;;;;5125556;27;20020;-48
2020/12/08 12:56:22;;;;;;;4.72;4.22;;;6.30;78.30;;;;;;5124290;28;20065;-47
2020/12/08 12:58:48;;;;;;;4.40;3.97;;;6.30;78.30;;;;;;5106247;28;20020;-48